X  Zatvori METAR podaci zračne luke     EDDK Cologne Bonn Airport
Temperatura
46°F Temperatura
43°F Točka rosišta
87% Vlaga



Vjetar
13 MPS
21 KM/S
6 M/S
11 Čvorovi



320°
SZ
Trenutna situacija

Djelimično oblačno Djelimično oblačno
Tlak zraka 1019.98 (hPa) - 30.12 (inHg)
Vidljivost 6 (milje) - 9.7 (km)
Zračna luka
Kôd zračne luke EDDK

Lokacija: Cologne Bonn Airport
Udaljenost: 56 (mi)

Metar:
EDDK 201050Z AUTO 32011KT 9999 FEW013 BKN029 08/06 Q1020 RESHRA TEMPO SHRA BKN014CB

Vrijeme: 2024-04-20 12:50 CEST